sensor_id;sensor_type;location;lat;lon;timestamp;P1;durP1;ratioP1;P2;durP2;ratioP2
72235;SDS011;60146;52.498;13.462;2023-03-01T00:02:02;32.23;;;9.57;;
72235;SDS011;60146;52.498;13.462;2023-03-01T00:04:27;26.70;;;9.37;;
72235;SDS011;60146;52.498;13.462;2023-03-01T00:06:53;27.03;;;9.73;;
72235;SDS011;60146;52.498;13.462;2023-03-01T00:09:18;31.53;;;9.70;;
72235;SDS011;60146;52.498;13.462;2023-03-01T00:11:44;26.90;;;9.83;;
72235;SDS011;60146;52.498;13.462;2023-03-01T00:14:09;26.23;;;10.47;;
72235;SDS011;60146;52.498;13.462;2023-03-01T00:16:38;28.47;;;9.43;;
72235;SDS011;60146;52.498;13.462;2023-03-01T00:19:04;24.42;;;9.60;;
72235;SDS011;60146;52.498;13.462;2023-03-01T00:21:30;27.90;;;9.43;;
72235;SDS011;60146;52.498;13.462;2023-03-01T00:23:55;34.43;;;9.60;;
72235;SDS011;60146;52.498;13.462;2023-03-01T00:26:21;25.30;;;9.53;;
72235;SDS011;60146;52.498;13.462;2023-03-01T00:28:47;22.70;;;8.60;;
72235;SDS011;60146;52.498;13.462;2023-03-01T00:31:16;25.80;;;8.90;;
72235;SDS011;60146;52.498;13.462;2023-03-01T00:33:42;27.55;;;9.10;;
72235;SDS011;60146;52.498;13.462;2023-03-01T00:36:08;23.33;;;9.03;;
72235;SDS011;60146;52.498;13.462;2023-03-01T00:38:37;26.37;;;9.23;;
72235;SDS011;60146;52.498;13.462;2023-03-01T00:41:03;24.10;;;9.10;;
72235;SDS011;60146;52.498;13.462;2023-03-01T00:43:29;23.13;;;8.50;;
72235;SDS011;60146;52.498;13.462;2023-03-01T00:45:54;21.50;;;8.80;;
72235;SDS011;60146;52.498;13.462;2023-03-01T00:48:19;32.73;;;9.93;;
72235;SDS011;60146;52.498;13.462;2023-03-01T00:50:44;23.07;;;8.40;;
72235;SDS011;60146;52.498;13.462;2023-03-01T00:53:10;26.10;;;8.87;;
72235;SDS011;60146;52.498;13.462;2023-03-01T00:55:35;25.67;;;8.70;;
72235;SDS011;60146;52.498;13.462;2023-03-01T00:58:01;24.77;;;9.30;;
72235;SDS011;60146;52.498;13.462;2023-03-01T01:00:26;23.80;;;7.97;;
72235;SDS011;60146;52.498;13.462;2023-03-01T01:02:52;28.17;;;9.30;;
72235;SDS011;60146;52.498;13.462;2023-03-01T01:05:17;21.03;;;8.17;;
72235;SDS011;60146;52.498;13.462;2023-03-01T01:07:45;20.60;;;8.03;;
72235;SDS011;60146;52.498;13.462;2023-03-01T01:10:11;22.87;;;8.50;;
72235;SDS011;60146;52.498;13.462;2023-03-01T01:15:07;23.27;;;7.97;;
72235;SDS011;60146;52.498;13.462;2023-03-01T01:17:32;22.80;;;8.80;;
72235;SDS011;60146;52.498;13.462;2023-03-01T01:19:57;24.53;;;8.70;;
72235;SDS011;60146;52.498;13.462;2023-03-01T01:22:23;21.77;;;8.37;;
72235;SDS011;60146;52.498;13.462;2023-03-01T01:24:48;22.10;;;8.60;;
72235;SDS011;60146;52.498;13.462;2023-03-01T01:27:13;24.43;;;8.77;;
72235;SDS011;60146;52.498;13.462;2023-03-01T01:29:38;28.70;;;8.37;;
72235;SDS011;60146;52.498;13.462;2023-03-01T01:32:04;27.10;;;8.43;;
72235;SDS011;60146;52.498;13.462;2023-03-01T01:34:29;26.27;;;8.20;;
72235;SDS011;60146;52.498;13.462;2023-03-01T01:36:54;22.23;;;7.70;;
72235;SDS011;60146;52.498;13.462;2023-03-01T01:39:20;18.90;;;7.60;;
72235;SDS011;60146;52.498;13.462;2023-03-01T01:41:45;19.50;;;6.83;;
72235;SDS011;60146;52.498;13.462;2023-03-01T01:44:16;20.73;;;6.50;;
72235;SDS011;60146;52.498;13.462;2023-03-01T01:49:50;23.33;;;7.10;;
72235;SDS011;60146;52.498;13.462;2023-03-01T01:51:57;25.40;;;7.17;;
72235;SDS011;60146;52.498;13.462;2023-03-01T01:54:25;21.83;;;7.67;;
72235;SDS011;60146;52.498;13.462;2023-03-01T01:56:52;29.20;;;10.93;;
72235;SDS011;60146;52.498;13.462;2023-03-01T01:59:19;24.77;;;8.33;;
72235;SDS011;60146;52.498;13.462;2023-03-01T02:01:49;22.37;;;6.97;;
72235;SDS011;60146;52.498;13.462;2023-03-01T02:04:14;29.73;;;9.20;;
72235;SDS011;60146;52.498;13.462;2023-03-01T02:06:41;24.67;;;8.33;;
72235;SDS011;60146;52.498;13.462;2023-03-01T02:09:13;17.05;;;8.00;;
72235;SDS011;60146;52.498;13.462;2023-03-01T02:11:38;22.87;;;8.70;;
72235;SDS011;60146;52.498;13.462;2023-03-01T02:14:04;24.83;;;9.20;;
72235;SDS011;60146;52.498;13.462;2023-03-01T02:16:30;22.60;;;8.87;;
72235;SDS011;60146;52.498;13.462;2023-03-01T02:18:56;20.43;;;8.90;;
72235;SDS011;60146;52.498;13.462;2023-03-01T02:23:59;20.67;;;8.10;;
72235;SDS011;60146;52.498;13.462;2023-03-01T02:26:42;27.00;;;8.67;;
72235;SDS011;60146;52.498;13.462;2023-03-01T02:29:07;24.47;;;8.43;;
72235;SDS011;60146;52.498;13.462;2023-03-01T02:31:32;25.00;;;8.70;;
72235;SDS011;60146;52.498;13.462;2023-03-01T02:34:07;21.30;;;8.33;;
72235;SDS011;60146;52.498;13.462;2023-03-01T02:36:37;18.87;;;8.40;;
72235;SDS011;60146;52.498;13.462;2023-03-01T02:39:03;25.70;;;8.07;;
72235;SDS011;60146;52.498;13.462;2023-03-01T02:41:30;18.93;;;7.40;;
72235;SDS011;60146;52.498;13.462;2023-03-01T02:43:56;22.23;;;7.63;;
72235;SDS011;60146;52.498;13.462;2023-03-01T02:46:23;23.87;;;8.73;;
72235;SDS011;60146;52.498;13.462;2023-03-01T02:48:49;20.90;;;8.10;;
72235;SDS011;60146;52.498;13.462;2023-03-01T02:51:18;18.93;;;8.20;;
72235;SDS011;60146;52.498;13.462;2023-03-01T02:56:12;24.63;;;9.27;;
72235;SDS011;60146;52.498;13.462;2023-03-01T02:58:41;21.00;;;8.63;;
72235;SDS011;60146;52.498;13.462;2023-03-01T03:01:10;24.53;;;8.80;;
72235;SDS011;60146;52.498;13.462;2023-03-01T03:03:35;24.70;;;8.73;;
72235;SDS011;60146;52.498;13.462;2023-03-01T03:06:00;20.93;;;8.37;;
72235;SDS011;60146;52.498;13.462;2023-03-01T03:08:25;28.40;;;9.50;;
72235;SDS011;60146;52.498;13.462;2023-03-01T03:10:50;23.60;;;9.27;;
72235;SDS011;60146;52.498;13.462;2023-03-01T03:13:16;24.93;;;9.23;;
72235;SDS011;60146;52.498;13.462;2023-03-01T03:15:42;24.77;;;9.10;;
72235;SDS011;60146;52.498;13.462;2023-03-01T03:18:10;26.23;;;9.23;;
72235;SDS011;60146;52.498;13.462;2023-03-01T03:20:35;22.80;;;9.10;;
72235;SDS011;60146;52.498;13.462;2023-03-01T03:23:01;28.33;;;10.07;;
72235;SDS011;60146;52.498;13.462;2023-03-01T03:25:26;25.33;;;9.27;;
72235;SDS011;60146;52.498;13.462;2023-03-01T03:27:52;24.10;;;8.93;;
72235;SDS011;60146;52.498;13.462;2023-03-01T03:30:24;22.03;;;8.67;;
72235;SDS011;60146;52.498;13.462;2023-03-01T03:32:50;23.60;;;8.70;;
72235;SDS011;60146;52.498;13.462;2023-03-01T03:35:23;26.83;;;9.37;;
72235;SDS011;60146;52.498;13.462;2023-03-01T03:37:49;33.17;;;9.43;;
72235;SDS011;60146;52.498;13.462;2023-03-01T03:40:28;24.23;;;8.97;;
72235;SDS011;60146;52.498;13.462;2023-03-01T03:42:54;21.20;;;8.77;;
72235;SDS011;60146;52.498;13.462;2023-03-01T03:45:19;23.07;;;9.47;;
72235;SDS011;60146;52.498;13.462;2023-03-01T03:47:44;26.70;;;9.37;;
72235;SDS011;60146;52.498;13.462;2023-03-01T03:50:10;25.40;;;9.80;;
72235;SDS011;60146;52.498;13.462;2023-03-01T03:52:36;22.40;;;8.90;;
72235;SDS011;60146;52.498;13.462;2023-03-01T03:55:01;25.63;;;9.83;;
72235;SDS011;60146;52.498;13.462;2023-03-01T03:57:26;26.13;;;9.03;;
72235;SDS011;60146;52.498;13.462;2023-03-01T03:59:52;22.90;;;9.03;;
72235;SDS011;60146;52.498;13.462;2023-03-01T04:02:17;23.80;;;9.60;;
72235;SDS011;60146;52.498;13.462;2023-03-01T04:04:47;23.33;;;8.48;;
72235;SDS011;60146;52.498;13.462;2023-03-01T04:07:14;23.10;;;8.30;;
72235;SDS011;60146;52.498;13.462;2023-03-01T04:09:40;20.17;;;8.27;;
72235;SDS011;60146;52.498;13.462;2023-03-01T04:12:07;17.87;;;8.30;;
72235;SDS011;60146;52.498;13.462;2023-03-01T04:14:32;20.33;;;7.93;;
72235;SDS011;60146;52.498;13.462;2023-03-01T04:16:58;24.17;;;8.80;;
72235;SDS011;60146;52.498;13.462;2023-03-01T04:19:23;21.63;;;8.67;;
72235;SDS011;60146;52.498;13.462;2023-03-01T04:21:48;25.73;;;8.90;;
72235;SDS011;60146;52.498;13.462;2023-03-01T04:24:13;25.43;;;9.07;;
72235;SDS011;60146;52.498;13.462;2023-03-01T04:26:39;27.30;;;9.43;;
72235;SDS011;60146;52.498;13.462;2023-03-01T04:29:04;25.67;;;9.03;;
72235;SDS011;60146;52.498;13.462;2023-03-01T04:31:29;21.00;;;8.13;;
72235;SDS011;60146;52.498;13.462;2023-03-01T04:33:55;22.80;;;8.57;;
72235;SDS011;60146;52.498;13.462;2023-03-01T04:38:53;26.97;;;8.70;;
72235;SDS011;60146;52.498;13.462;2023-03-01T04:41:19;27.70;;;9.43;;
72235;SDS011;60146;52.498;13.462;2023-03-01T04:43:45;25.83;;;9.10;;
72235;SDS011;60146;52.498;13.462;2023-03-01T04:46:11;28.30;;;9.93;;
72235;SDS011;60146;52.498;13.462;2023-03-01T04:48:38;24.47;;;10.00;;
72235;SDS011;60146;52.498;13.462;2023-03-01T04:51:03;24.53;;;10.40;;
72235;SDS011;60146;52.498;13.462;2023-03-01T04:53:29;29.30;;;10.70;;
72235;SDS011;60146;52.498;13.462;2023-03-01T04:55:55;25.97;;;10.20;;
72235;SDS011;60146;52.498;13.462;2023-03-01T04:58:21;26.00;;;9.53;;
72235;SDS011;60146;52.498;13.462;2023-03-01T05:00:46;26.47;;;10.43;;
72235;SDS011;60146;52.498;13.462;2023-03-01T05:03:12;23.73;;;10.13;;
72235;SDS011;60146;52.498;13.462;2023-03-01T05:05:37;28.83;;;10.20;;
72235;SDS011;60146;52.498;13.462;2023-03-01T05:08:04;24.03;;;9.67;;
72235;SDS011;60146;52.498;13.462;2023-03-01T05:10:31;26.92;;;10.68;;
72235;SDS011;60146;52.498;13.462;2023-03-01T05:12:57;28.27;;;10.67;;
72235;SDS011;60146;52.498;13.462;2023-03-01T05:15:22;29.63;;;9.83;;
72235;SDS011;60146;52.498;13.462;2023-03-01T05:17:50;24.53;;;10.17;;
72235;SDS011;60146;52.498;13.462;2023-03-01T05:20:15;24.03;;;9.20;;
72235;SDS011;60146;52.498;13.462;2023-03-01T05:22:41;26.33;;;10.00;;
72235;SDS011;60146;52.498;13.462;2023-03-01T05:25:06;28.70;;;10.67;;
72235;SDS011;60146;52.498;13.462;2023-03-01T05:27:32;29.13;;;11.00;;
72235;SDS011;60146;52.498;13.462;2023-03-01T05:29:57;27.60;;;10.57;;
72235;SDS011;60146;52.498;13.462;2023-03-01T05:32:23;24.77;;;10.73;;
72235;SDS011;60146;52.498;13.462;2023-03-01T05:34:48;30.00;;;11.33;;
72235;SDS011;60146;52.498;13.462;2023-03-01T05:37:13;28.10;;;11.77;;
72235;SDS011;60146;52.498;13.462;2023-03-01T05:39:39;24.50;;;10.90;;
72235;SDS011;60146;52.498;13.462;2023-03-01T05:42:04;30.43;;;11.23;;
72235;SDS011;60146;52.498;13.462;2023-03-01T05:44:29;25.50;;;10.60;;
72235;SDS011;60146;52.498;13.462;2023-03-01T05:46:55;33.53;;;12.37;;
72235;SDS011;60146;52.498;13.462;2023-03-01T05:49:21;23.23;;;9.70;;
72235;SDS011;60146;52.498;13.462;2023-03-01T05:51:49;24.13;;;9.57;;
72235;SDS011;60146;52.498;13.462;2023-03-01T05:54:15;27.97;;;10.93;;
72235;SDS011;60146;52.498;13.462;2023-03-01T05:56:40;22.40;;;8.80;;
72235;SDS011;60146;52.498;13.462;2023-03-01T05:59:05;24.70;;;9.93;;
72235;SDS011;60146;52.498;13.462;2023-03-01T06:01:34;22.97;;;9.33;;
72235;SDS011;60146;52.498;13.462;2023-03-01T06:04:00;26.67;;;10.40;;
72235;SDS011;60146;52.498;13.462;2023-03-01T06:06:25;28.20;;;9.43;;
72235;SDS011;60146;52.498;13.462;2023-03-01T06:08:51;30.57;;;10.00;;
72235;SDS011;60146;52.498;13.462;2023-03-01T06:11:16;31.63;;;11.73;;
72235;SDS011;60146;52.498;13.462;2023-03-01T06:13:42;30.47;;;11.33;;
72235;SDS011;60146;52.498;13.462;2023-03-01T06:16:07;30.20;;;11.03;;
72235;SDS011;60146;52.498;13.462;2023-03-01T06:18:33;27.33;;;10.50;;
72235;SDS011;60146;52.498;13.462;2023-03-01T06:20:58;28.03;;;9.87;;
72235;SDS011;60146;52.498;13.462;2023-03-01T06:23:23;23.43;;;9.43;;
72235;SDS011;60146;52.498;13.462;2023-03-01T06:25:49;29.87;;;10.83;;
72235;SDS011;60146;52.498;13.462;2023-03-01T06:28:14;23.03;;;9.57;;
72235;SDS011;60146;52.498;13.462;2023-03-01T06:30:39;24.87;;;10.17;;
72235;SDS011;60146;52.498;13.462;2023-03-01T06:33:05;24.57;;;9.80;;
72235;SDS011;60146;52.498;13.462;2023-03-01T06:35:30;28.40;;;11.60;;
72235;SDS011;60146;52.498;13.462;2023-03-01T06:37:56;26.37;;;10.83;;
72235;SDS011;60146;52.498;13.462;2023-03-01T06:40:22;33.83;;;10.40;;
72235;SDS011;60146;52.498;13.462;2023-03-01T06:42:48;28.03;;;10.60;;
72235;SDS011;60146;52.498;13.462;2023-03-01T06:45:14;22.10;;;10.07;;
72235;SDS011;60146;52.498;13.462;2023-03-01T06:47:39;33.03;;;11.43;;
72235;SDS011;60146;52.498;13.462;2023-03-01T06:50:04;39.20;;;14.13;;
72235;SDS011;60146;52.498;13.462;2023-03-01T06:52:30;36.87;;;13.80;;
72235;SDS011;60146;52.498;13.462;2023-03-01T06:54:55;39.30;;;13.77;;
72235;SDS011;60146;52.498;13.462;2023-03-01T06:57:20;33.27;;;11.20;;
72235;SDS011;60146;52.498;13.462;2023-03-01T06:59:46;36.37;;;11.67;;
72235;SDS011;60146;52.498;13.462;2023-03-01T07:02:12;29.07;;;11.43;;
72235;SDS011;60146;52.498;13.462;2023-03-01T07:04:37;26.70;;;11.10;;
72235;SDS011;60146;52.498;13.462;2023-03-01T07:07:03;28.03;;;11.00;;
72235;SDS011;60146;52.498;13.462;2023-03-01T07:09:28;26.10;;;10.37;;
72235;SDS011;60146;52.498;13.462;2023-03-01T07:11:53;33.37;;;12.50;;
72235;SDS011;60146;52.498;13.462;2023-03-01T07:14:18;35.63;;;12.57;;
72235;SDS011;60146;52.498;13.462;2023-03-01T07:16:44;37.43;;;11.83;;
72235;SDS011;60146;52.498;13.462;2023-03-01T07:19:10;38.10;;;12.60;;
72235;SDS011;60146;52.498;13.462;2023-03-01T07:21:35;37.93;;;13.70;;
72235;SDS011;60146;52.498;13.462;2023-03-01T07:24:02;32.83;;;12.63;;
72235;SDS011;60146;52.498;13.462;2023-03-01T07:26:27;32.90;;;12.13;;
72235;SDS011;60146;52.498;13.462;2023-03-01T07:28:52;33.47;;;13.20;;
72235;SDS011;60146;52.498;13.462;2023-03-01T07:31:18;37.97;;;13.57;;
72235;SDS011;60146;52.498;13.462;2023-03-01T07:33:43;37.70;;;12.93;;
72235;SDS011;60146;52.498;13.462;2023-03-01T07:36:08;32.50;;;13.37;;
72235;SDS011;60146;52.498;13.462;2023-03-01T07:38:34;46.90;;;13.10;;
72235;SDS011;60146;52.498;13.462;2023-03-01T07:41:00;40.60;;;13.33;;
72235;SDS011;60146;52.498;13.462;2023-03-01T07:43:25;31.43;;;12.33;;
72235;SDS011;60146;52.498;13.462;2023-03-01T07:45:51;31.17;;;13.00;;
72235;SDS011;60146;52.498;13.462;2023-03-01T07:48:16;34.13;;;12.93;;
72235;SDS011;60146;52.498;13.462;2023-03-01T07:50:42;32.37;;;13.13;;
72235;SDS011;60146;52.498;13.462;2023-03-01T07:53:07;39.70;;;12.47;;
72235;SDS011;60146;52.498;13.462;2023-03-01T07:55:33;37.50;;;12.77;;
72235;SDS011;60146;52.498;13.462;2023-03-01T07:57:58;33.17;;;12.33;;
72235;SDS011;60146;52.498;13.462;2023-03-01T08:00:23;41.03;;;13.20;;
72235;SDS011;60146;52.498;13.462;2023-03-01T08:02:48;43.13;;;12.60;;
72235;SDS011;60146;52.498;13.462;2023-03-01T08:05:14;35.90;;;12.90;;
72235;SDS011;60146;52.498;13.462;2023-03-01T08:07:39;36.00;;;12.20;;
72235;SDS011;60146;52.498;13.462;2023-03-01T08:10:04;30.50;;;12.77;;
72235;SDS011;60146;52.498;13.462;2023-03-01T08:12:30;29.90;;;11.80;;
72235;SDS011;60146;52.498;13.462;2023-03-01T08:14:55;36.27;;;12.13;;
72235;SDS011;60146;52.498;13.462;2023-03-01T08:17:22;34.67;;;12.43;;
72235;SDS011;60146;52.498;13.462;2023-03-01T08:19:47;27.27;;;11.73;;
72235;SDS011;60146;52.498;13.462;2023-03-01T08:22:12;36.23;;;12.40;;
72235;SDS011;60146;52.498;13.462;2023-03-01T08:24:37;33.97;;;13.33;;
72235;SDS011;60146;52.498;13.462;2023-03-01T08:27:03;27.97;;;12.30;;
72235;SDS011;60146;52.498;13.462;2023-03-01T08:29:30;31.60;;;12.70;;
72235;SDS011;60146;52.498;13.462;2023-03-01T08:31:55;27.83;;;11.87;;
72235;SDS011;60146;52.498;13.462;2023-03-01T08:34:21;28.93;;;11.50;;
72235;SDS011;60146;52.498;13.462;2023-03-01T08:36:46;32.60;;;11.20;;
72235;SDS011;60146;52.498;13.462;2023-03-01T08:39:15;26.47;;;10.37;;
72235;SDS011;60146;52.498;13.462;2023-03-01T08:41:40;24.67;;;9.73;;
72235;SDS011;60146;52.498;13.462;2023-03-01T08:44:06;30.67;;;11.80;;
72235;SDS011;60146;52.498;13.462;2023-03-01T08:46:33;20.73;;;9.83;;
72235;SDS011;60146;52.498;13.462;2023-03-01T08:48:59;17.87;;;9.07;;
72235;SDS011;60146;52.498;13.462;2023-03-01T08:51:24;19.70;;;8.20;;
72235;SDS011;60146;52.498;13.462;2023-03-01T08:53:50;15.93;;;6.87;;
72235;SDS011;60146;52.498;13.462;2023-03-01T08:56:15;15.97;;;7.03;;
72235;SDS011;60146;52.498;13.462;2023-03-01T08:58:43;16.40;;;6.70;;
72235;SDS011;60146;52.498;13.462;2023-03-01T09:01:09;13.10;;;6.80;;
72235;SDS011;60146;52.498;13.462;2023-03-01T09:03:35;30.13;;;8.13;;
72235;SDS011;60146;52.498;13.462;2023-03-01T09:06:00;15.13;;;6.80;;
72235;SDS011;60146;52.498;13.462;2023-03-01T09:08:26;18.90;;;7.40;;
72235;SDS011;60146;52.498;13.462;2023-03-01T09:10:52;11.90;;;6.47;;
72235;SDS011;60146;52.498;13.462;2023-03-01T09:13:17;16.47;;;7.13;;
72235;SDS011;60146;52.498;13.462;2023-03-01T09:15:42;18.27;;;6.37;;
72235;SDS011;60146;52.498;13.462;2023-03-01T09:18:07;18.17;;;6.50;;
72235;SDS011;60146;52.498;13.462;2023-03-01T09:20:32;13.40;;;5.60;;
72235;SDS011;60146;52.498;13.462;2023-03-01T09:22:58;12.83;;;5.70;;
72235;SDS011;60146;52.498;13.462;2023-03-01T09:25:23;15.13;;;6.00;;
72235;SDS011;60146;52.498;13.462;2023-03-01T09:27:52;13.70;;;6.00;;
72235;SDS011;60146;52.498;13.462;2023-03-01T09:30:17;14.40;;;5.83;;
72235;SDS011;60146;52.498;13.462;2023-03-01T09:32:43;12.53;;;6.23;;
72235;SDS011;60146;52.498;13.462;2023-03-01T09:35:10;16.77;;;5.83;;
72235;SDS011;60146;52.498;13.462;2023-03-01T09:37:35;14.27;;;5.80;;
72235;SDS011;60146;52.498;13.462;2023-03-01T09:40:02;10.75;;;5.03;;
72235;SDS011;60146;52.498;13.462;2023-03-01T09:42:28;17.42;;;5.95;;
72235;SDS011;60146;52.498;13.462;2023-03-01T09:44:58;15.82;;;5.97;;
72235;SDS011;60146;52.498;13.462;2023-03-01T09:47:25;10.82;;;5.57;;
72235;SDS011;60146;52.498;13.462;2023-03-01T09:50:03;23.05;;;6.97;;
72235;SDS011;60146;52.498;13.462;2023-03-01T09:52:34;10.15;;;5.32;;
72235;SDS011;60146;52.498;13.462;2023-03-01T09:55:01;12.40;;;6.00;;
72235;SDS011;60146;52.498;13.462;2023-03-01T09:57:43;13.35;;;5.00;;
72235;SDS011;60146;52.498;13.462;2023-03-01T10:03:28;9.13;;;4.40;;
72235;SDS011;60146;52.498;13.462;2023-03-01T10:08:56;11.68;;;4.22;;
72235;SDS011;60146;52.498;13.462;2023-03-01T10:11:26;22.00;;;5.40;;
72235;SDS011;60146;52.498;13.462;2023-03-01T10:16:24;13.98;;;4.18;;
72235;SDS011;60146;52.498;13.462;2023-03-01T10:18:52;7.40;;;3.60;;
72235;SDS011;60146;52.498;13.462;2023-03-01T10:21:19;8.80;;;3.38;;
72235;SDS011;60146;52.498;13.462;2023-03-01T10:23:44;11.57;;;3.70;;
72235;SDS011;60146;52.498;13.462;2023-03-01T10:31:18;9.50;;;3.83;;
72235;SDS011;60146;52.498;13.462;2023-03-01T10:33:45;7.97;;;2.97;;
72235;SDS011;60146;52.498;13.462;2023-03-01T10:36:12;12.52;;;4.10;;
72235;SDS011;60146;52.498;13.462;2023-03-01T10:38:51;9.23;;;3.83;;
72235;SDS011;60146;52.498;13.462;2023-03-01T10:41:19;8.80;;;3.50;;
72235;SDS011;60146;52.498;13.462;2023-03-01T10:43:48;11.57;;;3.83;;
72235;SDS011;60146;52.498;13.462;2023-03-01T10:46:24;14.40;;;3.78;;
72235;SDS011;60146;52.498;13.462;2023-03-01T10:51:27;7.40;;;3.55;;
72235;SDS011;60146;52.498;13.462;2023-03-01T10:53:52;5.75;;;3.13;;
72235;SDS011;60146;52.498;13.462;2023-03-01T10:56:17;12.48;;;3.83;;
72235;SDS011;60146;52.498;13.462;2023-03-01T10:58:59;8.73;;;3.10;;
72235;SDS011;60146;52.498;13.462;2023-03-01T11:01:29;6.15;;;2.92;;
72235;SDS011;60146;52.498;13.462;2023-03-01T11:06:32;8.52;;;4.22;;
72235;SDS011;60146;52.498;13.462;2023-03-01T11:09:01;5.25;;;2.75;;
72235;SDS011;60146;52.498;13.462;2023-03-01T11:11:37;7.80;;;3.20;;
72235;SDS011;60146;52.498;13.462;2023-03-01T11:14:04;6.22;;;3.47;;
72235;SDS011;60146;52.498;13.462;2023-03-01T11:16:38;7.05;;;3.30;;
72235;SDS011;60146;52.498;13.462;2023-03-01T11:21:35;6.82;;;2.75;;
72235;SDS011;60146;52.498;13.462;2023-03-01T11:24:01;8.68;;;2.83;;
72235;SDS011;60146;52.498;13.462;2023-03-01T11:26:28;7.80;;;2.40;;
72235;SDS011;60146;52.498;13.462;2023-03-01T11:28:55;6.82;;;2.80;;
72235;SDS011;60146;52.498;13.462;2023-03-01T11:31:22;7.05;;;2.70;;
72235;SDS011;60146;52.498;13.462;2023-03-01T11:36:34;5.63;;;2.92;;
72235;SDS011;60146;52.498;13.462;2023-03-01T11:39:12;10.48;;;3.10;;
72235;SDS011;60146;52.498;13.462;2023-03-01T11:41:40;6.47;;;2.10;;
72235;SDS011;60146;52.498;13.462;2023-03-01T11:44:23;4.38;;;2.30;;
72235;SDS011;60146;52.498;13.462;2023-03-01T11:50:09;7.93;;;2.60;;
72235;SDS011;60146;52.498;13.462;2023-03-01T11:57:39;4.43;;;2.40;;
72235;SDS011;60146;52.498;13.462;2023-03-01T12:10:26;4.87;;;2.40;;
72235;SDS011;60146;52.498;13.462;2023-03-01T12:13:03;9.60;;;3.13;;
72235;SDS011;60146;52.498;13.462;2023-03-01T12:15:33;8.48;;;2.40;;
72235;SDS011;60146;52.498;13.462;2023-03-01T12:18:10;8.77;;;2.72;;
72235;SDS011;60146;52.498;13.462;2023-03-01T12:30:58;3.65;;;1.70;;
72235;SDS011;60146;52.498;13.462;2023-03-01T12:41:12;4.72;;;2.20;;
72235;SDS011;60146;52.498;13.462;2023-03-01T12:46:15;4.50;;;2.20;;
72235;SDS011;60146;52.498;13.462;2023-03-01T12:48:58;3.80;;;1.90;;
72235;SDS011;60146;52.498;13.462;2023-03-01T12:51:26;4.95;;;2.00;;
72235;SDS011;60146;52.498;13.462;2023-03-01T12:53:53;6.45;;;2.38;;
72235;SDS011;60146;52.498;13.462;2023-03-01T12:56:26;6.15;;;2.50;;
72235;SDS011;60146;52.498;13.462;2023-03-01T13:06:55;14.13;;;2.88;;
72235;SDS011;60146;52.498;13.462;2023-03-01T13:09:24;5.28;;;2.03;;
72235;SDS011;60146;52.498;13.462;2023-03-01T13:11:52;3.08;;;1.90;;
72235;SDS011;60146;52.498;13.462;2023-03-01T13:16:47;10.48;;;2.72;;
72235;SDS011;60146;52.498;13.462;2023-03-01T13:19:22;4.78;;;2.45;;
72235;SDS011;60146;52.498;13.462;2023-03-01T13:21:49;6.95;;;2.25;;
72235;SDS011;60146;52.498;13.462;2023-03-01T13:24:25;4.35;;;1.80;;
72235;SDS011;60146;52.498;13.462;2023-03-01T13:29:32;16.77;;;3.25;;
72235;SDS011;60146;52.498;13.462;2023-03-01T13:32:11;5.07;;;2.20;;
72235;SDS011;60146;52.498;13.462;2023-03-01T13:34:44;7.35;;;2.22;;
72235;SDS011;60146;52.498;13.462;2023-03-01T13:37:10;6.55;;;2.25;;
72235;SDS011;60146;52.498;13.462;2023-03-01T13:39:39;4.30;;;2.10;;
72235;SDS011;60146;52.498;13.462;2023-03-01T13:44:32;3.60;;;2.10;;
72235;SDS011;60146;52.498;13.462;2023-03-01T13:49:25;4.97;;;2.10;;
72235;SDS011;60146;52.498;13.462;2023-03-01T13:51:51;5.13;;;2.20;;
72235;SDS011;60146;52.498;13.462;2023-03-01T13:54:22;4.15;;;2.15;;
72235;SDS011;60146;52.498;13.462;2023-03-01T13:56:47;10.07;;;2.65;;
72235;SDS011;60146;52.498;13.462;2023-03-01T13:59:14;4.53;;;2.10;;
72235;SDS011;60146;52.498;13.462;2023-03-01T14:01:40;8.15;;;2.60;;
72235;SDS011;60146;52.498;13.462;2023-03-01T14:04:24;5.25;;;2.38;;
72235;SDS011;60146;52.498;13.462;2023-03-01T14:06:50;4.05;;;2.20;;
72235;SDS011;60146;52.498;13.462;2023-03-01T14:09:18;13.18;;;2.72;;
72235;SDS011;60146;52.498;13.462;2023-03-01T14:16:59;4.60;;;2.00;;
72235;SDS011;60146;52.498;13.462;2023-03-01T14:19:29;7.93;;;2.60;;
72235;SDS011;60146;52.498;13.462;2023-03-01T14:24:39;4.82;;;2.47;;
72235;SDS011;60146;52.498;13.462;2023-03-01T14:27:09;3.72;;;2.15;;
72235;SDS011;60146;52.498;13.462;2023-03-01T14:29:36;6.63;;;2.30;;
72235;SDS011;60146;52.498;13.462;2023-03-01T14:32:15;6.93;;;2.40;;
72235;SDS011;60146;52.498;13.462;2023-03-01T14:34:49;10.75;;;2.90;;
72235;SDS011;60146;52.498;13.462;2023-03-01T14:39:43;9.67;;;2.70;;
72235;SDS011;60146;52.498;13.462;2023-03-01T14:42:08;5.60;;;2.30;;
72235;SDS011;60146;52.498;13.462;2023-03-01T14:44:34;5.27;;;2.20;;
72235;SDS011;60146;52.498;13.462;2023-03-01T14:47:02;6.83;;;2.50;;
72235;SDS011;60146;52.498;13.462;2023-03-01T14:49:29;4.80;;;1.97;;
72235;SDS011;60146;52.498;13.462;2023-03-01T14:54:27;4.20;;;1.90;;
72235;SDS011;60146;52.498;13.462;2023-03-01T14:56:54;6.90;;;1.90;;
72235;SDS011;60146;52.498;13.462;2023-03-01T14:59:22;7.13;;;2.63;;
72235;SDS011;60146;52.498;13.462;2023-03-01T15:01:48;10.60;;;3.57;;
72235;SDS011;60146;52.498;13.462;2023-03-01T15:04:14;7.83;;;3.00;;
72235;SDS011;60146;52.498;13.462;2023-03-01T15:06:40;10.63;;;3.10;;
72235;SDS011;60146;52.498;13.462;2023-03-01T15:09:06;9.67;;;2.67;;
72235;SDS011;60146;52.498;13.462;2023-03-01T15:11:32;5.37;;;2.00;;
72235;SDS011;60146;52.498;13.462;2023-03-01T15:13:58;6.47;;;2.30;;
72235;SDS011;60146;52.498;13.462;2023-03-01T15:18:51;9.67;;;2.83;;
72235;SDS011;60146;52.498;13.462;2023-03-01T15:21:21;11.87;;;2.80;;
72235;SDS011;60146;52.498;13.462;2023-03-01T15:24:30;9.60;;;2.50;;
72235;SDS011;60146;52.498;13.462;2023-03-01T15:26:40;6.47;;;2.33;;
72235;SDS011;60146;52.498;13.462;2023-03-01T15:29:10;5.78;;;2.30;;
72235;SDS011;60146;52.498;13.462;2023-03-01T15:31:41;6.50;;;2.53;;
72235;SDS011;60146;52.498;13.462;2023-03-01T15:34:21;4.20;;;2.13;;
72235;SDS011;60146;52.498;13.462;2023-03-01T15:36:47;4.43;;;1.60;;
72235;SDS011;60146;52.498;13.462;2023-03-01T15:42:02;8.30;;;2.50;;
72235;SDS011;60146;52.498;13.462;2023-03-01T15:44:28;7.60;;;2.30;;
72235;SDS011;60146;52.498;13.462;2023-03-01T15:46:54;9.97;;;2.30;;
72235;SDS011;60146;52.498;13.462;2023-03-01T15:49:27;7.80;;;1.97;;
72235;SDS011;60146;52.498;13.462;2023-03-01T15:51:56;8.93;;;2.00;;
72235;SDS011;60146;52.498;13.462;2023-03-01T15:54:22;5.47;;;1.80;;
72235;SDS011;60146;52.498;13.462;2023-03-01T15:56:48;7.63;;;1.73;;
72235;SDS011;60146;52.498;13.462;2023-03-01T15:59:13;4.03;;;1.80;;
72235;SDS011;60146;52.498;13.462;2023-03-01T16:01:39;6.93;;;1.80;;
72235;SDS011;60146;52.498;13.462;2023-03-01T16:04:04;3.83;;;1.77;;
72235;SDS011;60146;52.498;13.462;2023-03-01T16:06:30;5.10;;;1.90;;
72235;SDS011;60146;52.498;13.462;2023-03-01T16:08:55;4.70;;;1.87;;
72235;SDS011;60146;52.498;13.462;2023-03-01T16:11:20;6.47;;;1.87;;
72235;SDS011;60146;52.498;13.462;2023-03-01T16:13:46;7.10;;;1.70;;